sensor_id;sensor_type;location;lat;lon;timestamp;P1;durP1;ratioP1;P2;durP2;ratioP2
10701;SDS011;5402;50.004;8.246;2022-10-16T00:01:46;3.23;;;1.50;;
10701;SDS011;5402;50.004;8.246;2022-10-16T00:04:13;3.83;;;1.50;;
10701;SDS011;5402;50.004;8.246;2022-10-16T00:06:40;1.85;;;1.25;;
10701;SDS011;5402;50.004;8.246;2022-10-16T00:09:07;1.73;;;1.30;;
10701;SDS011;5402;50.004;8.246;2022-10-16T00:11:34;1.50;;;1.40;;
10701;SDS011;5402;50.004;8.246;2022-10-16T00:14:03;2.17;;;1.50;;
10701;SDS011;5402;50.004;8.246;2022-10-16T00:16:32;2.60;;;1.50;;
10701;SDS011;5402;50.004;8.246;2022-10-16T00:19:00;2.93;;;1.50;;
10701;SDS011;5402;50.004;8.246;2022-10-16T00:21:27;2.80;;;1.87;;
10701;SDS011;5402;50.004;8.246;2022-10-16T00:23:56;2.20;;;2.00;;
10701;SDS011;5402;50.004;8.246;2022-10-16T00:26:25;2.37;;;1.90;;
10701;SDS011;5402;50.004;8.246;2022-10-16T00:28:53;1.60;;;1.47;;
10701;SDS011;5402;50.004;8.246;2022-10-16T00:31:20;2.73;;;1.60;;
10701;SDS011;5402;50.004;8.246;2022-10-16T00:33:49;1.47;;;1.37;;
10701;SDS011;5402;50.004;8.246;2022-10-16T00:36:17;1.87;;;1.70;;
10701;SDS011;5402;50.004;8.246;2022-10-16T00:38:45;1.90;;;1.50;;
10701;SDS011;5402;50.004;8.246;2022-10-16T00:41:17;3.00;;;1.70;;
10701;SDS011;5402;50.004;8.246;2022-10-16T00:43:46;1.43;;;1.33;;
10701;SDS011;5402;50.004;8.246;2022-10-16T00:46:16;4.03;;;2.50;;
10701;SDS011;5402;50.004;8.246;2022-10-16T00:48:45;3.13;;;1.73;;
10701;SDS011;5402;50.004;8.246;2022-10-16T00:51:17;2.90;;;1.90;;
10701;SDS011;5402;50.004;8.246;2022-10-16T00:53:48;2.40;;;2.17;;
10701;SDS011;5402;50.004;8.246;2022-10-16T00:56:15;2.30;;;1.70;;
10701;SDS011;5402;50.004;8.246;2022-10-16T00:58:42;2.00;;;1.80;;
10701;SDS011;5402;50.004;8.246;2022-10-16T01:01:09;2.27;;;1.73;;
10701;SDS011;5402;50.004;8.246;2022-10-16T01:03:36;1.63;;;1.53;;
10701;SDS011;5402;50.004;8.246;2022-10-16T01:06:07;2.47;;;1.80;;
10701;SDS011;5402;50.004;8.246;2022-10-16T01:08:44;3.40;;;2.20;;
10701;SDS011;5402;50.004;8.246;2022-10-16T01:11:18;3.47;;;2.00;;
10701;SDS011;5402;50.004;8.246;2022-10-16T01:13:53;3.23;;;2.50;;
10701;SDS011;5402;50.004;8.246;2022-10-16T01:16:22;3.90;;;2.40;;
10701;SDS011;5402;50.004;8.246;2022-10-16T01:18:56;3.20;;;2.50;;
10701;SDS011;5402;50.004;8.246;2022-10-16T01:21:29;3.30;;;2.40;;
10701;SDS011;5402;50.004;8.246;2022-10-16T01:24:01;2.83;;;2.40;;
10701;SDS011;5402;50.004;8.246;2022-10-16T01:26:36;4.70;;;2.43;;
10701;SDS011;5402;50.004;8.246;2022-10-16T01:29:12;2.40;;;2.20;;
10701;SDS011;5402;50.004;8.246;2022-10-16T01:31:44;3.50;;;2.80;;
10701;SDS011;5402;50.004;8.246;2022-10-16T01:34:15;2.97;;;2.30;;
10701;SDS011;5402;50.004;8.246;2022-10-16T01:36:45;2.87;;;2.43;;
10701;SDS011;5402;50.004;8.246;2022-10-16T01:39:16;2.70;;;2.43;;
10701;SDS011;5402;50.004;8.246;2022-10-16T01:41:49;5.37;;;2.30;;
10701;SDS011;5402;50.004;8.246;2022-10-16T01:44:23;2.40;;;2.20;;
10701;SDS011;5402;50.004;8.246;2022-10-16T01:46:54;2.83;;;2.37;;
10701;SDS011;5402;50.004;8.246;2022-10-16T01:49:22;2.43;;;2.07;;
10701;SDS011;5402;50.004;8.246;2022-10-16T01:51:53;2.50;;;2.30;;
10701;SDS011;5402;50.004;8.246;2022-10-16T01:54:22;2.60;;;2.40;;
10701;SDS011;5402;50.004;8.246;2022-10-16T01:56:51;2.77;;;2.33;;
10701;SDS011;5402;50.004;8.246;2022-10-16T01:59:19;3.87;;;3.27;;
10701;SDS011;5402;50.004;8.246;2022-10-16T02:01:51;2.90;;;2.53;;
10701;SDS011;5402;50.004;8.246;2022-10-16T02:04:22;3.40;;;2.10;;
10701;SDS011;5402;50.004;8.246;2022-10-16T02:06:52;4.87;;;2.90;;
10701;SDS011;5402;50.004;8.246;2022-10-16T02:09:19;2.83;;;2.63;;
10701;SDS011;5402;50.004;8.246;2022-10-16T02:11:46;2.93;;;2.40;;
10701;SDS011;5402;50.004;8.246;2022-10-16T02:14:14;2.57;;;2.37;;
10701;SDS011;5402;50.004;8.246;2022-10-16T02:16:43;4.67;;;2.27;;
10701;SDS011;5402;50.004;8.246;2022-10-16T02:19:11;4.27;;;2.83;;
10701;SDS011;5402;50.004;8.246;2022-10-16T02:21:43;3.87;;;2.30;;
10701;SDS011;5402;50.004;8.246;2022-10-16T02:24:14;2.67;;;2.27;;
10701;SDS011;5402;50.004;8.246;2022-10-16T02:26:49;4.30;;;2.50;;
10701;SDS011;5402;50.004;8.246;2022-10-16T02:29:22;3.70;;;2.60;;
10701;SDS011;5402;50.004;8.246;2022-10-16T02:31:54;2.60;;;2.40;;
10701;SDS011;5402;50.004;8.246;2022-10-16T02:34:24;2.83;;;2.60;;
10701;SDS011;5402;50.004;8.246;2022-10-16T02:36:52;3.30;;;2.40;;
10701;SDS011;5402;50.004;8.246;2022-10-16T02:39:20;5.27;;;3.00;;
10701;SDS011;5402;50.004;8.246;2022-10-16T02:41:47;3.73;;;2.70;;
10701;SDS011;5402;50.004;8.246;2022-10-16T02:44:14;5.37;;;2.80;;
10701;SDS011;5402;50.004;8.246;2022-10-16T02:46:40;3.37;;;2.80;;
10701;SDS011;5402;50.004;8.246;2022-10-16T02:49:08;4.83;;;2.93;;
10701;SDS011;5402;50.004;8.246;2022-10-16T02:51:35;4.00;;;3.07;;
10701;SDS011;5402;50.004;8.246;2022-10-16T02:54:02;6.03;;;3.00;;
10701;SDS011;5402;50.004;8.246;2022-10-16T02:56:29;5.97;;;3.47;;
10701;SDS011;5402;50.004;8.246;2022-10-16T02:58:56;6.57;;;3.40;;
10701;SDS011;5402;50.004;8.246;2022-10-16T03:01:23;3.20;;;2.83;;
10701;SDS011;5402;50.004;8.246;2022-10-16T03:03:50;4.73;;;3.13;;
10701;SDS011;5402;50.004;8.246;2022-10-16T03:06:18;3.13;;;2.83;;
10701;SDS011;5402;50.004;8.246;2022-10-16T03:08:44;3.90;;;3.10;;
10701;SDS011;5402;50.004;8.246;2022-10-16T03:11:11;3.20;;;2.80;;
10701;SDS011;5402;50.004;8.246;2022-10-16T03:13:38;3.77;;;3.00;;
10701;SDS011;5402;50.004;8.246;2022-10-16T03:16:05;4.17;;;2.97;;
10701;SDS011;5402;50.004;8.246;2022-10-16T03:18:32;3.23;;;2.70;;
10701;SDS011;5402;50.004;8.246;2022-10-16T03:20:58;4.43;;;2.70;;
10701;SDS011;5402;50.004;8.246;2022-10-16T03:23:26;3.30;;;3.00;;
10701;SDS011;5402;50.004;8.246;2022-10-16T03:25:53;3.00;;;2.70;;
10701;SDS011;5402;50.004;8.246;2022-10-16T03:28:20;3.10;;;2.80;;
10701;SDS011;5402;50.004;8.246;2022-10-16T03:30:47;7.03;;;3.03;;
10701;SDS011;5402;50.004;8.246;2022-10-16T03:33:14;3.93;;;2.40;;
10701;SDS011;5402;50.004;8.246;2022-10-16T03:35:40;2.73;;;2.53;;
10701;SDS011;5402;50.004;8.246;2022-10-16T03:38:07;2.70;;;2.33;;
10701;SDS011;5402;50.004;8.246;2022-10-16T03:40:35;3.37;;;2.97;;
10701;SDS011;5402;50.004;8.246;2022-10-16T03:43:02;3.70;;;2.90;;
10701;SDS011;5402;50.004;8.246;2022-10-16T03:45:29;3.23;;;2.90;;
10701;SDS011;5402;50.004;8.246;2022-10-16T03:47:55;3.10;;;2.80;;
10701;SDS011;5402;50.004;8.246;2022-10-16T03:50:22;3.43;;;3.07;;
10701;SDS011;5402;50.004;8.246;2022-10-16T03:52:49;3.63;;;2.50;;
10701;SDS011;5402;50.004;8.246;2022-10-16T03:55:15;3.20;;;2.77;;
10701;SDS011;5402;50.004;8.246;2022-10-16T03:57:43;3.03;;;2.70;;
10701;SDS011;5402;50.004;8.246;2022-10-16T04:00:11;4.80;;;2.40;;
10701;SDS011;5402;50.004;8.246;2022-10-16T04:02:38;3.57;;;2.80;;
10701;SDS011;5402;50.004;8.246;2022-10-16T04:05:05;3.90;;;2.40;;
10701;SDS011;5402;50.004;8.246;2022-10-16T04:07:32;3.33;;;2.80;;
10701;SDS011;5402;50.004;8.246;2022-10-16T04:09:59;3.70;;;2.50;;
10701;SDS011;5402;50.004;8.246;2022-10-16T04:12:26;3.30;;;3.00;;
10701;SDS011;5402;50.004;8.246;2022-10-16T04:14:54;3.33;;;2.77;;
10701;SDS011;5402;50.004;8.246;2022-10-16T04:17:21;2.90;;;2.60;;
10701;SDS011;5402;50.004;8.246;2022-10-16T04:19:48;3.97;;;2.80;;
10701;SDS011;5402;50.004;8.246;2022-10-16T04:22:15;4.23;;;2.43;;
10701;SDS011;5402;50.004;8.246;2022-10-16T04:24:41;5.07;;;2.57;;
10701;SDS011;5402;50.004;8.246;2022-10-16T04:27:08;3.10;;;2.70;;
10701;SDS011;5402;50.004;8.246;2022-10-16T04:29:35;2.70;;;2.50;;
10701;SDS011;5402;50.004;8.246;2022-10-16T04:32:03;2.90;;;2.67;;
10701;SDS011;5402;50.004;8.246;2022-10-16T04:34:30;2.47;;;2.27;;
10701;SDS011;5402;50.004;8.246;2022-10-16T04:36:56;3.03;;;2.37;;
10701;SDS011;5402;50.004;8.246;2022-10-16T04:39:23;5.07;;;2.53;;
10701;SDS011;5402;50.004;8.246;2022-10-16T04:41:50;3.53;;;2.40;;
10701;SDS011;5402;50.004;8.246;2022-10-16T04:44:16;3.47;;;2.27;;
10701;SDS011;5402;50.004;8.246;2022-10-16T04:46:43;3.43;;;2.17;;
10701;SDS011;5402;50.004;8.246;2022-10-16T04:49:11;2.70;;;2.50;;
10701;SDS011;5402;50.004;8.246;2022-10-16T04:51:38;2.43;;;2.23;;
10701;SDS011;5402;50.004;8.246;2022-10-16T04:54:05;2.53;;;2.33;;
10701;SDS011;5402;50.004;8.246;2022-10-16T04:56:31;4.43;;;2.40;;
10701;SDS011;5402;50.004;8.246;2022-10-16T04:59:05;2.30;;;2.10;;
10701;SDS011;5402;50.004;8.246;2022-10-16T05:01:31;2.30;;;2.10;;
10701;SDS011;5402;50.004;8.246;2022-10-16T05:03:58;2.37;;;2.17;;
10701;SDS011;5402;50.004;8.246;2022-10-16T05:06:26;2.30;;;2.07;;
10701;SDS011;5402;50.004;8.246;2022-10-16T05:08:53;2.07;;;1.93;;
10701;SDS011;5402;50.004;8.246;2022-10-16T05:11:20;2.30;;;2.10;;
10701;SDS011;5402;50.004;8.246;2022-10-16T05:13:46;3.30;;;2.00;;
10701;SDS011;5402;50.004;8.246;2022-10-16T05:16:13;2.20;;;2.00;;
10701;SDS011;5402;50.004;8.246;2022-10-16T05:18:40;2.20;;;2.00;;
10701;SDS011;5402;50.004;8.246;2022-10-16T05:21:07;2.70;;;2.23;;
10701;SDS011;5402;50.004;8.246;2022-10-16T05:23:35;2.30;;;2.10;;
10701;SDS011;5402;50.004;8.246;2022-10-16T05:26:01;2.20;;;2.00;;
10701;SDS011;5402;50.004;8.246;2022-10-16T05:28:29;3.73;;;2.50;;
10701;SDS011;5402;50.004;8.246;2022-10-16T05:30:56;2.97;;;2.60;;
10701;SDS011;5402;50.004;8.246;2022-10-16T05:33:25;3.40;;;2.27;;
10701;SDS011;5402;50.004;8.246;2022-10-16T05:35:52;2.40;;;2.20;;
10701;SDS011;5402;50.004;8.246;2022-10-16T05:38:19;2.33;;;2.13;;
10701;SDS011;5402;50.004;8.246;2022-10-16T05:40:51;3.07;;;2.17;;
10701;SDS011;5402;50.004;8.246;2022-10-16T05:43:18;2.30;;;2.10;;
10701;SDS011;5402;50.004;8.246;2022-10-16T05:45:52;2.53;;;2.13;;
10701;SDS011;5402;50.004;8.246;2022-10-16T05:48:20;3.27;;;2.20;;
10701;SDS011;5402;50.004;8.246;2022-10-16T05:50:47;2.07;;;1.93;;
10701;SDS011;5402;50.004;8.246;2022-10-16T05:53:14;2.17;;;2.00;;
10701;SDS011;5402;50.004;8.246;2022-10-16T05:55:40;2.13;;;1.93;;
10701;SDS011;5402;50.004;8.246;2022-10-16T05:58:08;2.43;;;2.10;;
10701;SDS011;5402;50.004;8.246;2022-10-16T06:00:35;2.97;;;2.10;;
10701;SDS011;5402;50.004;8.246;2022-10-16T06:03:02;2.30;;;2.07;;
10701;SDS011;5402;50.004;8.246;2022-10-16T06:05:29;2.30;;;1.80;;
10701;SDS011;5402;50.004;8.246;2022-10-16T06:07:56;3.23;;;2.37;;
10701;SDS011;5402;50.004;8.246;2022-10-16T06:10:23;3.50;;;2.23;;
10701;SDS011;5402;50.004;8.246;2022-10-16T06:12:50;2.40;;;2.20;;
10701;SDS011;5402;50.004;8.246;2022-10-16T06:15:18;3.33;;;2.23;;
10701;SDS011;5402;50.004;8.246;2022-10-16T06:17:44;6.90;;;2.70;;
10701;SDS011;5402;50.004;8.246;2022-10-16T06:20:11;3.03;;;2.60;;
10701;SDS011;5402;50.004;8.246;2022-10-16T06:22:38;2.30;;;1.83;;
10701;SDS011;5402;50.004;8.246;2022-10-16T06:25:05;2.63;;;2.40;;
10701;SDS011;5402;50.004;8.246;2022-10-16T06:27:32;2.10;;;1.90;;
10701;SDS011;5402;50.004;8.246;2022-10-16T06:29:59;2.50;;;2.30;;
10701;SDS011;5402;50.004;8.246;2022-10-16T06:32:28;5.33;;;2.30;;
10701;SDS011;5402;50.004;8.246;2022-10-16T06:34:55;3.23;;;2.10;;
10701;SDS011;5402;50.004;8.246;2022-10-16T06:37:21;4.57;;;2.30;;
10701;SDS011;5402;50.004;8.246;2022-10-16T06:39:48;5.53;;;2.53;;
10701;SDS011;5402;50.004;8.246;2022-10-16T06:42:15;2.73;;;2.40;;
10701;SDS011;5402;50.004;8.246;2022-10-16T06:44:41;2.60;;;2.40;;
10701;SDS011;5402;50.004;8.246;2022-10-16T06:47:08;2.77;;;2.17;;
10701;SDS011;5402;50.004;8.246;2022-10-16T06:49:36;2.50;;;2.30;;
10701;SDS011;5402;50.004;8.246;2022-10-16T06:52:03;3.83;;;2.70;;
10701;SDS011;5402;50.004;8.246;2022-10-16T06:54:30;3.27;;;2.47;;
10701;SDS011;5402;50.004;8.246;2022-10-16T06:56:57;2.70;;;2.50;;
10701;SDS011;5402;50.004;8.246;2022-10-16T06:59:25;2.53;;;2.33;;
10701;SDS011;5402;50.004;8.246;2022-10-16T07:01:51;4.57;;;2.60;;
10701;SDS011;5402;50.004;8.246;2022-10-16T07:04:18;2.63;;;2.43;;
10701;SDS011;5402;50.004;8.246;2022-10-16T07:06:46;4.03;;;2.87;;
10701;SDS011;5402;50.004;8.246;2022-10-16T07:09:13;3.43;;;2.70;;
10701;SDS011;5402;50.004;8.246;2022-10-16T07:11:40;3.03;;;2.70;;
10701;SDS011;5402;50.004;8.246;2022-10-16T07:14:10;4.80;;;2.67;;
10701;SDS011;5402;50.004;8.246;2022-10-16T07:16:43;2.70;;;2.50;;
10701;SDS011;5402;50.004;8.246;2022-10-16T07:19:10;4.63;;;2.70;;
10701;SDS011;5402;50.004;8.246;2022-10-16T07:21:40;2.80;;;2.60;;
10701;SDS011;5402;50.004;8.246;2022-10-16T07:24:11;3.20;;;2.83;;
10701;SDS011;5402;50.004;8.246;2022-10-16T07:26:39;4.80;;;2.90;;
10701;SDS011;5402;50.004;8.246;2022-10-16T07:29:08;3.70;;;2.87;;
10701;SDS011;5402;50.004;8.246;2022-10-16T07:31:38;4.47;;;2.80;;
10701;SDS011;5402;50.004;8.246;2022-10-16T07:34:05;5.27;;;3.13;;
10701;SDS011;5402;50.004;8.246;2022-10-16T07:36:32;4.13;;;3.03;;
10701;SDS011;5402;50.004;8.246;2022-10-16T07:38:59;3.07;;;2.77;;
10701;SDS011;5402;50.004;8.246;2022-10-16T07:41:27;3.20;;;2.90;;
10701;SDS011;5402;50.004;8.246;2022-10-16T07:43:54;3.40;;;3.10;;
10701;SDS011;5402;50.004;8.246;2022-10-16T07:46:24;3.53;;;2.80;;
10701;SDS011;5402;50.004;8.246;2022-10-16T07:48:51;3.67;;;2.97;;
10701;SDS011;5402;50.004;8.246;2022-10-16T07:51:19;3.50;;;2.80;;
10701;SDS011;5402;50.004;8.246;2022-10-16T07:53:47;3.33;;;2.90;;
10701;SDS011;5402;50.004;8.246;2022-10-16T07:56:14;3.27;;;2.97;;
10701;SDS011;5402;50.004;8.246;2022-10-16T07:58:43;3.73;;;3.00;;
10701;SDS011;5402;50.004;8.246;2022-10-16T08:01:11;4.23;;;2.97;;
10701;SDS011;5402;50.004;8.246;2022-10-16T08:03:41;3.53;;;3.00;;
10701;SDS011;5402;50.004;8.246;2022-10-16T08:06:10;5.27;;;3.00;;
10701;SDS011;5402;50.004;8.246;2022-10-16T08:08:37;3.27;;;2.97;;
10701;SDS011;5402;50.004;8.246;2022-10-16T08:11:03;4.07;;;3.23;;
10701;SDS011;5402;50.004;8.246;2022-10-16T08:13:31;4.07;;;2.90;;
10701;SDS011;5402;50.004;8.246;2022-10-16T08:15:59;5.00;;;3.20;;
10701;SDS011;5402;50.004;8.246;2022-10-16T08:18:26;3.90;;;3.60;;
10701;SDS011;5402;50.004;8.246;2022-10-16T08:20:56;5.37;;;3.77;;
10701;SDS011;5402;50.004;8.246;2022-10-16T08:23:25;3.93;;;3.60;;
10701;SDS011;5402;50.004;8.246;2022-10-16T08:25:51;4.73;;;3.90;;
10701;SDS011;5402;50.004;8.246;2022-10-16T08:28:19;4.87;;;4.20;;
10701;SDS011;5402;50.004;8.246;2022-10-16T08:30:46;5.97;;;4.30;;
10701;SDS011;5402;50.004;8.246;2022-10-16T08:33:14;4.67;;;4.23;;
10701;SDS011;5402;50.004;8.246;2022-10-16T08:35:41;4.90;;;4.10;;
10701;SDS011;5402;50.004;8.246;2022-10-16T08:38:07;6.07;;;4.67;;
10701;SDS011;5402;50.004;8.246;2022-10-16T08:40:35;5.70;;;4.20;;
10701;SDS011;5402;50.004;8.246;2022-10-16T08:43:09;5.93;;;3.80;;
10701;SDS011;5402;50.004;8.246;2022-10-16T08:46:10;5.43;;;3.80;;
10701;SDS011;5402;50.004;8.246;2022-10-16T08:48:49;7.10;;;4.20;;
10701;SDS011;5402;50.004;8.246;2022-10-16T08:51:18;7.13;;;4.60;;
10701;SDS011;5402;50.004;8.246;2022-10-16T08:53:49;7.60;;;4.50;;
10701;SDS011;5402;50.004;8.246;2022-10-16T08:56:19;5.73;;;4.23;;
10701;SDS011;5402;50.004;8.246;2022-10-16T08:58:46;6.13;;;4.10;;
10701;SDS011;5402;50.004;8.246;2022-10-16T09:01:15;7.47;;;4.73;;
10701;SDS011;5402;50.004;8.246;2022-10-16T09:03:48;5.17;;;3.90;;
10701;SDS011;5402;50.004;8.246;2022-10-16T09:06:34;5.37;;;4.13;;
10701;SDS011;5402;50.004;8.246;2022-10-16T09:12:08;5.50;;;4.27;;
10701;SDS011;5402;50.004;8.246;2022-10-16T09:14:42;5.37;;;3.97;;
10701;SDS011;5402;50.004;8.246;2022-10-16T09:17:20;5.23;;;4.00;;
10701;SDS011;5402;50.004;8.246;2022-10-16T09:20:12;7.20;;;4.83;;
10701;SDS011;5402;50.004;8.246;2022-10-16T09:22:55;6.20;;;3.93;;
10701;SDS011;5402;50.004;8.246;2022-10-16T09:25:35;5.73;;;3.97;;
10701;SDS011;5402;50.004;8.246;2022-10-16T09:28:07;7.10;;;4.73;;
10701;SDS011;5402;50.004;8.246;2022-10-16T09:30:35;6.50;;;3.90;;
10701;SDS011;5402;50.004;8.246;2022-10-16T09:33:03;7.90;;;3.70;;
10701;SDS011;5402;50.004;8.246;2022-10-16T09:35:33;4.97;;;3.27;;
10701;SDS011;5402;50.004;8.246;2022-10-16T09:38:03;7.83;;;3.70;;
10701;SDS011;5402;50.004;8.246;2022-10-16T09:40:31;6.80;;;3.53;;
10701;SDS011;5402;50.004;8.246;2022-10-16T09:43:02;9.40;;;5.60;;
10701;SDS011;5402;50.004;8.246;2022-10-16T09:45:38;3.50;;;3.20;;
10701;SDS011;5402;50.004;8.246;2022-10-16T09:48:10;6.27;;;4.00;;
10701;SDS011;5402;50.004;8.246;2022-10-16T09:50:39;5.30;;;3.87;;
10701;SDS011;5402;50.004;8.246;2022-10-16T09:53:10;4.83;;;3.37;;
10701;SDS011;5402;50.004;8.246;2022-10-16T09:55:47;3.93;;;3.47;;
10701;SDS011;5402;50.004;8.246;2022-10-16T09:58:15;8.93;;;3.67;;
10701;SDS011;5402;50.004;8.246;2022-10-16T10:00:42;4.13;;;2.83;;
10701;SDS011;5402;50.004;8.246;2022-10-16T10:03:20;5.50;;;3.10;;
10701;SDS011;5402;50.004;8.246;2022-10-16T10:06:05;3.93;;;2.73;;
10701;SDS011;5402;50.004;8.246;2022-10-16T10:08:52;4.13;;;2.30;;
10701;SDS011;5402;50.004;8.246;2022-10-16T10:14:14;3.87;;;2.43;;
10701;SDS011;5402;50.004;8.246;2022-10-16T10:17:02;2.63;;;2.13;;
10701;SDS011;5402;50.004;8.246;2022-10-16T10:19:41;3.43;;;2.63;;
10701;SDS011;5402;50.004;8.246;2022-10-16T10:25:14;3.50;;;2.57;;
10701;SDS011;5402;50.004;8.246;2022-10-16T10:27:48;3.10;;;2.40;;
10701;SDS011;5402;50.004;8.246;2022-10-16T10:30:27;2.87;;;2.30;;
10701;SDS011;5402;50.004;8.246;2022-10-16T10:33:06;3.97;;;2.00;;
10701;SDS011;5402;50.004;8.246;2022-10-16T10:35:44;4.23;;;2.20;;
10701;SDS011;5402;50.004;8.246;2022-10-16T10:38:32;3.17;;;2.50;;
10701;SDS011;5402;50.004;8.246;2022-10-16T10:41:11;4.03;;;2.67;;
10701;SDS011;5402;50.004;8.246;2022-10-16T10:43:53;4.03;;;2.60;;
10701;SDS011;5402;50.004;8.246;2022-10-16T10:46:29;2.13;;;1.93;;
10701;SDS011;5402;50.004;8.246;2022-10-16T10:49:08;3.70;;;2.27;;
10701;SDS011;5402;50.004;8.246;2022-10-16T10:52:07;2.37;;;2.10;;
10701;SDS011;5402;50.004;8.246;2022-10-16T10:54:50;2.83;;;2.57;;
10701;SDS011;5402;50.004;8.246;2022-10-16T10:57:21;2.67;;;2.20;;
10701;SDS011;5402;50.004;8.246;2022-10-16T10:59:57;3.33;;;2.63;;
10701;SDS011;5402;50.004;8.246;2022-10-16T11:02:35;3.10;;;2.70;;
10701;SDS011;5402;50.004;8.246;2022-10-16T11:05:16;2.53;;;2.20;;
10701;SDS011;5402;50.004;8.246;2022-10-16T11:07:57;1.80;;;1.70;;
10701;SDS011;5402;50.004;8.246;2022-10-16T11:10:28;2.27;;;1.90;;
10701;SDS011;5402;50.004;8.246;2022-10-16T11:13:04;2.30;;;1.87;;
10701;SDS011;5402;50.004;8.246;2022-10-16T11:15:41;2.33;;;2.13;;
10701;SDS011;5402;50.004;8.246;2022-10-16T11:18:11;1.73;;;1.63;;
10701;SDS011;5402;50.004;8.246;2022-10-16T11:20:45;3.57;;;2.20;;
10701;SDS011;5402;50.004;8.246;2022-10-16T11:23:18;3.23;;;2.33;;
10701;SDS011;5402;50.004;8.246;2022-10-16T11:25:52;5.43;;;2.40;;
10701;SDS011;5402;50.004;8.246;2022-10-16T11:28:23;2.50;;;2.30;;
10701;SDS011;5402;50.004;8.246;2022-10-16T11:30:56;2.27;;;2.00;;
10701;SDS011;5402;50.004;8.246;2022-10-16T11:33:27;3.00;;;2.60;;
10701;SDS011;5402;50.004;8.246;2022-10-16T11:36:07;4.40;;;2.80;;
10701;SDS011;5402;50.004;8.246;2022-10-16T11:38:41;2.93;;;2.63;;
10701;SDS011;5402;50.004;8.246;2022-10-16T11:41:17;7.13;;;2.83;;
10701;SDS011;5402;50.004;8.246;2022-10-16T11:43:49;3.93;;;2.60;;
10701;SDS011;5402;50.004;8.246;2022-10-16T11:46:25;3.07;;;2.20;;
10701;SDS011;5402;50.004;8.246;2022-10-16T11:48:54;3.37;;;2.17;;
10701;SDS011;5402;50.004;8.246;2022-10-16T11:51:29;3.23;;;2.30;;
10701;SDS011;5402;50.004;8.246;2022-10-16T11:54:04;2.83;;;1.87;;
10701;SDS011;5402;50.004;8.246;2022-10-16T11:56:41;2.40;;;2.20;;
10701;SDS011;5402;50.004;8.246;2022-10-16T11:59:13;3.03;;;2.20;;
10701;SDS011;5402;50.004;8.246;2022-10-16T12:01:46;4.40;;;2.30;;
10701;SDS011;5402;50.004;8.246;2022-10-16T12:04:19;3.60;;;2.30;;
10701;SDS011;5402;50.004;8.246;2022-10-16T12:06:52;2.90;;;2.60;;
10701;SDS011;5402;50.004;8.246;2022-10-16T12:09:24;2.97;;;2.33;;
10701;SDS011;5402;50.004;8.246;2022-10-16T12:11:54;2.27;;;2.07;;
10701;SDS011;5402;50.004;8.246;2022-10-16T12:14:33;2.50;;;2.30;;
10701;SDS011;5402;50.004;8.246;2022-10-16T12:17:03;4.80;;;2.60;;
10701;SDS011;5402;50.004;8.246;2022-10-16T12:19:56;3.65;;;2.00;;
10701;SDS011;5402;50.004;8.246;2022-10-16T12:22:26;2.40;;;2.20;;
10701;SDS011;5402;50.004;8.246;2022-10-16T12:24:56;3.50;;;1.90;;
10701;SDS011;5402;50.004;8.246;2022-10-16T12:27:27;1.98;;;1.80;;
10701;SDS011;5402;50.004;8.246;2022-10-16T12:29:56;2.37;;;2.13;;
10701;SDS011;5402;50.004;8.246;2022-10-16T12:32:27;3.07;;;2.20;;
10701;SDS011;5402;50.004;8.246;2022-10-16T12:34:56;2.33;;;2.13;;
10701;SDS011;5402;50.004;8.246;2022-10-16T12:37:25;2.57;;;2.37;;
10701;SDS011;5402;50.004;8.246;2022-10-16T12:39:54;1.97;;;1.87;;
10701;SDS011;5402;50.004;8.246;2022-10-16T12:42:31;2.80;;;2.30;;
10701;SDS011;5402;50.004;8.246;2022-10-16T12:44:59;2.37;;;2.10;;
10701;SDS011;5402;50.004;8.246;2022-10-16T12:47:37;2.60;;;2.38;;
10701;SDS011;5402;50.004;8.246;2022-10-16T12:50:32;2.80;;;1.90;;
10701;SDS011;5402;50.004;8.246;2022-10-16T12:53:00;2.95;;;2.30;;
10701;SDS011;5402;50.004;8.246;2022-10-16T12:55:31;2.47;;;2.00;;
10701;SDS011;5402;50.004;8.246;2022-10-16T12:58:16;2.17;;;2.00;;
10701;SDS011;5402;50.004;8.246;2022-10-16T13:00:59;3.67;;;1.90;;
10701;SDS011;5402;50.004;8.246;2022-10-16T13:03:48;2.10;;;1.90;;
10701;SDS011;5402;50.004;8.246;2022-10-16T13:06:33;2.20;;;2.00;;
10701;SDS011;5402;50.004;8.246;2022-10-16T13:09:10;1.97;;;1.87;;
10701;SDS011;5402;50.004;8.246;2022-10-16T13:11:52;4.15;;;2.20;;
10701;SDS011;5402;50.004;8.246;2022-10-16T13:14:35;3.40;;;2.00;;
10701;SDS011;5402;50.004;8.246;2022-10-16T13:17:22;1.93;;;1.70;;
10701;SDS011;5402;50.004;8.246;2022-10-16T13:19:59;1.90;;;1.80;;
10701;SDS011;5402;50.004;8.246;2022-10-16T13:22:38;1.90;;;1.80;;
10701;SDS011;5402;50.004;8.246;2022-10-16T13:25:17;2.20;;;2.00;;
10701;SDS011;5402;50.004;8.246;2022-10-16T13:27:52;2.33;;;2.10;;
10701;SDS011;5402;50.004;8.246;2022-10-16T13:30:23;3.03;;;2.40;;
10701;SDS011;5402;50.004;8.246;2022-10-16T13:32:54;3.47;;;2.20;;
10701;SDS011;5402;50.004;8.246;2022-10-16T13:35:27;2.47;;;2.28;;
10701;SDS011;5402;50.004;8.246;2022-10-16T13:38:08;2.73;;;2.53;;
10701;SDS011;5402;50.004;8.246;2022-10-16T13:40:47;6.65;;;4.60;;
10701;SDS011;5402;50.004;8.246;2022-10-16T13:43:16;3.10;;;2.80;;
10701;SDS011;5402;50.004;8.246;2022-10-16T13:45:53;3.50;;;3.20;;
10701;SDS011;5402;50.004;8.246;2022-10-16T13:48:21;2.83;;;2.57;;
10701;SDS011;5402;50.004;8.246;2022-10-16T13:50:57;3.40;;;2.50;;
10701;SDS011;5402;50.004;8.246;2022-10-16T13:53:37;2.90;;;2.70;;
10701;SDS011;5402;50.004;8.246;2022-10-16T13:56:06;3.03;;;2.50;;
10701;SDS011;5402;50.004;8.246;2022-10-16T13:58:36;4.10;;;2.57;;
10701;SDS011;5402;50.004;8.246;2022-10-16T14:01:05;2.70;;;2.50;;
10701;SDS011;5402;50.004;8.246;2022-10-16T14:03:42;5.13;;;3.17;;
10701;SDS011;5402;50.004;8.246;2022-10-16T14:06:11;7.63;;;5.00;;
10701;SDS011;5402;50.004;8.246;2022-10-16T14:08:41;3.03;;;2.40;;
10701;SDS011;5402;50.004;8.246;2022-10-16T14:11:10;4.88;;;4.40;;
10701;SDS011;5402;50.004;8.246;2022-10-16T14:13:38;3.13;;;2.93;;
10701;SDS011;5402;50.004;8.246;2022-10-16T14:16:11;3.23;;;2.90;;
10701;SDS011;5402;50.004;8.246;2022-10-16T14:18:44;2.58;;;2.38;;
10701;SDS011;5402;50.004;8.246;2022-10-16T14:21:15;3.53;;;3.22;;
10701;SDS011;5402;50.004;8.246;2022-10-16T14:23:42;3.15;;;2.42;;
10701;SDS011;5402;50.004;8.246;2022-10-16T14:26:16;2.75;;;2.55;;
10701;SDS011;5402;50.004;8.246;2022-10-16T14:28:46;3.47;;;2.60;;
10701;SDS011;5402;50.004;8.246;2022-10-16T14:31:24;3.60;;;3.30;;
10701;SDS011;5402;50.004;8.246;2022-10-16T14:33:53;4.22;;;2.40;;
10701;SDS011;5402;50.004;8.246;2022-10-16T14:36:20;5.30;;;3.45;;
10701;SDS011;5402;50.004;8.246;2022-10-16T14:38:48;4.50;;;3.40;;
10701;SDS011;5402;50.004;8.246;2022-10-16T14:41:21;3.88;;;3.00;;
10701;SDS011;5402;50.004;8.246;2022-10-16T14:43:50;4.35;;;3.75;;
10701;SDS011;5402;50.004;8.246;2022-10-16T14:46:19;4.90;;;4.40;;
10701;SDS011;5402;50.004;8.246;2022-10-16T14:48:54;6.25;;;3.92;;
10701;SDS011;5402;50.004;8.246;2022-10-16T14:51:26;4.30;;;3.85;;
10701;SDS011;5402;50.004;8.246;2022-10-16T14:53:53;4.28;;;3.88;;
10701;SDS011;5402;50.004;8.246;2022-10-16T14:56:20;5.25;;;3.15;;
10701;SDS011;5402;50.004;8.246;2022-10-16T14:58:49;3.38;;;3.08;;
10701;SDS011;5402;50.004;8.246;2022-10-16T15:01:17;5.72;;;4.35;;
10701;SDS011;5402;50.004;8.246;2022-10-16T15:03:44;6.78;;;4.20;;
10701;SDS011;5402;50.004;8.246;2022-10-16T15:06:13;3.88;;;3.30;;
10701;SDS011;5402;50.004;8.246;2022-10-16T15:08:42;3.78;;;3.08;;
10701;SDS011;5402;50.004;8.246;2022-10-16T15:11:09;3.30;;;3.03;;
10701;SDS011;5402;50.004;8.246;2022-10-16T15:13:38;3.70;;;3.40;;
10701;SDS011;5402;50.004;8.246;2022-10-16T15:16:07;3.30;;;3.00;;
10701;SDS011;5402;50.004;8.246;2022-10-16T15:18:36;5.03;;;3.20;;
10701;SDS011;5402;50.004;8.246;2022-10-16T15:21:03;3.72;;;3.30;;
10701;SDS011;5402;50.004;8.246;2022-10-16T15:23:31;3.30;;;3.00;;
10701;SDS011;5402;50.004;8.246;2022-10-16T15:25:58;4.72;;;3.70;;
10701;SDS011;5402;50.004;8.246;2022-10-16T15:28:25;3.80;;;3.50;;
10701;SDS011;5402;50.004;8.246;2022-10-16T15:30:53;4.45;;;3.70;;